Time;durP1;ratioP1;P1;durP2;ratioP2;P2;SDS_P1;SDS_P2;PMS_P1;PMS_P2;Temp;Humidity;BMP_temperature;BMP_pressure;BME280_temperature;BME280_humidity;BME280_pressure;Samples;Min_cycle;Max_cycle;Signal;HPM_P1;HPM_P2
2022/05/29 00:01:46;;;;;;;0.10;0.10;;;;;;;;;;5044635;28;20098;-88
2022/05/29 00:04:12;;;;;;;0.10;0.10;;;;;;;;;;5044323;28;20452;-88
2022/05/29 00:06:40;;;;;;;0.10;0.10;;;;;;;;;;5043558;28;20040;-89
2022/05/29 00:09:07;;;;;;;0.10;0.10;;;;;;;;;;5043470;28;20501;-89
2022/05/29 00:11:33;;;;;;;0.10;0.10;;;;;;;;;;5060370;28;20127;-89
2022/05/29 00:14:00;;;;;;;0.10;0.10;;;;;;;;;;5043666;28;20072;-88
2022/05/29 00:16:30;;;;;;;0.20;0.20;;;;;;;;;;5043353;28;20398;-89
2022/05/29 00:18:56;;;;;;;0.10;0.10;;;;;;;;;;5043600;28;20040;-89
2022/05/29 00:21:23;;;;;;;0.00;0.00;;;;;;;;;;5045195;28;20369;-88
2022/05/29 00:23:49;;;;;;;0.20;0.20;;;;;;;;;;5044148;28;20083;-90
2022/05/29 00:26:18;;;;;;;0.13;0.13;;;;;;;;;;5044147;28;20078;-89
2022/05/29 00:28:44;;;;;;;0.13;0.13;;;;;;;;;;5044368;28;20135;-88
2022/05/29 00:31:11;;;;;;;0.20;0.20;;;;;;;;;;5036245;28;20045;-89
2022/05/29 00:33:37;;;;;;;0.20;0.20;;;;;;;;;;5057812;28;20037;-89
2022/05/29 00:36:03;;;;;;;0.10;0.10;;;;;;;;;;5044046;28;20390;-88
2022/05/29 00:38:38;;;;;;;0.10;0.10;;;;;;;;;;5043659;28;20083;-89
2022/05/29 00:41:18;;;;;;;0.20;0.20;;;;;;;;;;5043992;28;20040;-89
2022/05/29 00:44:04;;;;;;;0.20;0.20;;;;;;;;;;5043640;28;20044;-89
2022/05/29 00:46:34;;;;;;;0.10;0.10;;;;;;;;;;5044387;28;20044;-89
2022/05/29 00:49:00;;;;;;;0.13;0.13;;;;;;;;;;5060484;28;20123;-89
2022/05/29 00:51:27;;;;;;;0.10;0.10;;;;;;;;;;5033731;28;20071;-88
2022/05/29 00:53:53;;;;;;;0.10;0.10;;;;;;;;;;5043511;28;20036;-89
2022/05/29 00:56:19;;;;;;;0.10;0.10;;;;;;;;;;5042998;28;20067;-89
2022/05/29 00:58:45;;;;;;;0.10;0.10;;;;;;;;;;5043525;28;20497;-89
2022/05/29 01:01:11;;;;;;;0.20;0.20;;;;;;;;;;5043123;28;20048;-88
2022/05/29 01:03:37;;;;;;;0.10;0.10;;;;;;;;;;5038218;28;20044;-88
2022/05/29 01:06:03;;;;;;;0.17;0.17;;;;;;;;;;5037560;28;20044;-88
2022/05/29 01:08:31;;;;;;;0.10;0.10;;;;;;;;;;5042592;28;20040;-88
2022/05/29 01:11:16;;;;;;;0.10;0.10;;;;;;;;;;5024402;28;20119;-88
2022/05/29 01:13:56;;;;;;;0.00;0.00;;;;;;;;;;5046292;28;20044;-88
2022/05/29 01:16:28;;;;;;;0.10;0.10;;;;;;;;;;5042509;28;20090;-89
2022/05/29 01:19:26;;;;;;;0.10;0.10;;;;;;;;;;5042511;28;20036;-88
2022/05/29 01:21:52;;;;;;;0.10;0.10;;;;;;;;;;5012114;28;20055;-89
2022/05/29 01:24:37;;;;;;;0.10;0.10;;;;;;;;;;5035581;28;20033;-89
2022/05/29 01:27:22;;;;;;;0.08;0.08;;;;;;;;;;5037335;28;20131;-88
2022/05/29 01:29:54;;;;;;;0.00;0.00;;;;;;;;;;5038895;28;20517;-89
2022/05/29 01:32:27;;;;;;;0.10;0.10;;;;;;;;;;5039325;28;20043;-89
2022/05/29 01:34:54;;;;;;;0.10;0.10;;;;;;;;;;5040409;28;20079;-88
2022/05/29 01:37:22;;;;;;;0.10;0.10;;;;;;;;;;5043279;28;20047;-90
2022/05/29 01:39:48;;;;;;;0.20;0.20;;;;;;;;;;5043433;28;20087;-89
2022/05/29 01:42:17;;;;;;;0.30;0.30;;;;;;;;;;5043405;28;20037;-89
2022/05/29 01:44:56;;;;;;;0.10;0.10;;;;;;;;;;5043622;28;20075;-89
2022/05/29 01:47:28;;;;;;;0.20;0.20;;;;;;;;;;5043411;28;20099;-88
2022/05/29 01:50:00;;;;;;;0.20;0.20;;;;;;;;;;5055653;28;20052;-88
2022/05/29 01:52:35;;;;;;;0.10;0.10;;;;;;;;;;5042093;28;20041;-88
2022/05/29 01:55:01;;;;;;;;;;;;;;;;;;5043231;28;20051;-88
2022/05/29 01:57:36;;;;;;;0.20;0.20;;;;;;;;;;5039388;28;20284;-88
2022/05/29 02:00:10;;;;;;;0.10;0.10;;;;;;;;;;5058816;28;20115;-88
2022/05/29 02:02:55;;;;;;;0.10;0.10;;;;;;;;;;5037777;28;20543;-88
2022/05/29 02:05:26;;;;;;;0.10;0.10;;;;;;;;;;5042291;28;20053;-88
2022/05/29 02:07:54;;;;;;;0.10;0.10;;;;;;;;;;5042094;28;20128;-88
2022/05/29 02:10:27;;;;;;;0.13;0.13;;;;;;;;;;5042528;28;20044;-88
2022/05/29 02:12:56;;;;;;;0.15;0.15;;;;;;;;;;5059102;28;20103;-88
2022/05/29 02:15:26;;;;;;;0.10;0.10;;;;;;;;;;5043547;28;20041;-89
2022/05/29 02:17:55;;;;;;;0.13;0.13;;;;;;;;;;5036924;28;20097;-89
2022/05/29 02:20:33;;;;;;;0.10;0.10;;;;;;;;;;5042335;28;20087;-89
2022/05/29 02:23:09;;;;;;;0.20;0.20;;;;;;;;;;5042980;28;20039;-89
2022/05/29 02:25:36;;;;;;;0.10;0.10;;;;;;;;;;5043742;28;20505;-89
2022/05/29 02:28:13;;;;;;;0.20;0.20;;;;;;;;;;5042677;28;20044;-88
2022/05/29 02:30:45;;;;;;;0.20;0.20;;;;;;;;;;5043129;28;20044;-88
2022/05/29 02:33:11;;;;;;;0.20;0.20;;;;;;;;;;5042622;28;20049;-89
2022/05/29 02:35:46;;;;;;;0.20;0.20;;;;;;;;;;5042260;28;20047;-89
2022/05/29 02:38:20;;;;;;;0.20;0.20;;;;;;;;;;5042480;28;20059;-89
2022/05/29 02:41:00;;;;;;;0.10;0.10;;;;;;;;;;5059933;28;20127;-89
2022/05/29 02:43:45;;;;;;;0.13;0.13;;;;;;;;;;5046548;28;20055;-89
2022/05/29 02:46:29;;;;;;;0.10;0.10;;;;;;;;;;5045629;28;20048;-88
2022/05/29 02:49:00;;;;;;;0.13;0.13;;;;;;;;;;5045625;28;20123;-88
2022/05/29 02:51:37;;;;;;;0.10;0.10;;;;;;;;;;5045873;28;20042;-89
2022/05/29 02:54:04;;;;;;;0.20;0.20;;;;;;;;;;5040219;28;20048;-88
2022/05/29 02:56:30;;;;;;;0.20;0.20;;;;;;;;;;5028393;28;20074;-88
2022/05/29 02:58:58;;;;;;;0.10;0.10;;;;;;;;;;5044849;28;20036;-89
2022/05/29 03:01:35;;;;;;;0.10;0.10;;;;;;;;;;5061289;28;20037;-88
2022/05/29 03:04:22;;;;;;;0.20;0.20;;;;;;;;;;5044229;28;20040;-88
2022/05/29 03:06:58;;;;;;;0.17;0.17;;;;;;;;;;5045177;28;20040;-89
2022/05/29 03:09:36;;;;;;;0.10;0.10;;;;;;;;;;5061789;28;20036;-89
2022/05/29 03:12:06;;;;;;;0.15;0.15;;;;;;;;;;5038559;28;20090;-89
2022/05/29 03:14:38;;;;;;;0.20;0.20;;;;;;;;;;5062717;28;20036;-89
2022/05/29 03:17:06;;;;;;;0.17;0.17;;;;;;;;;;5045996;28;20037;-89
2022/05/29 03:19:51;;;;;;;0.13;0.13;;;;;;;;;;5044170;28;20033;-88
2022/05/29 03:22:33;;;;;;;0.08;0.08;;;;;;;;;;5047443;28;20079;-88
2022/05/29 03:25:20;;;;;;;0.30;0.30;;;;;;;;;;5058255;28;20042;-89
2022/05/29 03:27:49;;;;;;;0.10;0.10;;;;;;;;;;5038712;28;20037;-88
2022/05/29 03:30:23;;;;;;;0.17;0.17;;;;;;;;;;5044735;28;20040;-87
2022/05/29 03:32:51;;;;;;;0.20;0.20;;;;;;;;;;5044645;28;20474;-88
2022/05/29 03:35:31;;;;;;;0.20;0.20;;;;;;;;;;5040012;28;20099;-89
2022/05/29 03:37:59;;;;;;;0.47;0.47;;;;;;;;;;5038883;28;20037;-89
2022/05/29 03:40:27;;;;;;;0.10;0.10;;;;;;;;;;5021447;28;20033;-89
2022/05/29 03:42:53;;;;;;;0.20;0.20;;;;;;;;;;5043440;28;20037;-88
2022/05/29 03:45:19;;;;;;;0.10;0.10;;;;;;;;;;5023927;28;20044;-89
2022/05/29 03:47:45;;;;;;;0.20;0.20;;;;;;;;;;5037642;28;20040;-89
2022/05/29 03:50:13;;;;;;;0.10;0.10;;;;;;;;;;5042035;28;20086;-88
2022/05/29 03:52:39;;;;;;;0.20;0.20;;;;;;;;;;5043681;28;20040;-88
2022/05/29 03:55:06;;;;;;;0.20;0.20;;;;;;;;;;5043808;28;20059;-88
2022/05/29 03:57:32;;;;;;;0.20;0.20;;;;;;;;;;5043156;28;20041;-89
2022/05/29 03:59:58;;;;;;;0.20;0.20;;;;;;;;;;5044122;28;20040;-87
2022/05/29 04:02:24;;;;;;;0.10;0.10;;;;;;;;;;5042673;28;20086;-86
2022/05/29 04:04:50;;;;;;;0.10;0.10;;;;;;;;;;5043050;28;20041;-87
2022/05/29 04:07:16;;;;;;;0.20;0.20;;;;;;;;;;5041905;28;20043;-87
2022/05/29 04:12:26;;;;;;;0.10;0.10;;;;;;;;;;5061765;28;20091;-88
2022/05/29 04:14:52;;;;;;;0.10;0.10;;;;;;;;;;5044647;28;20036;-88
2022/05/29 04:17:19;;;;;;;0.17;0.17;;;;;;;;;;5044465;28;20044;-88
2022/05/29 04:19:46;;;;;;;0.20;0.20;;;;;;;;;;5044423;28;20504;-89
2022/05/29 04:22:16;;;;;;;0.20;0.20;;;;;;;;;;5044274;28;20440;-88
2022/05/29 04:24:45;;;;;;;0.20;0.20;;;;;;;;;;5044809;28;20041;-88
2022/05/29 04:27:13;;;;;;;0.10;0.10;;;;;;;;;;5060877;28;20040;-86
2022/05/29 04:29:39;;;;;;;0.30;0.30;;;;;;;;;;5044006;28;20044;-88
2022/05/29 04:34:56;;;;;;;0.20;0.20;;;;;;;;;;5059974;28;20040;-88
2022/05/29 04:37:22;;;;;;;0.25;0.25;;;;;;;;;;5042895;28;20136;-88
2022/05/29 04:39:48;;;;;;;0.15;0.15;;;;;;;;;;5042776;28;20036;-88
2022/05/29 04:42:14;;;;;;;0.15;0.15;;;;;;;;;;5040027;28;20075;-89
2022/05/29 04:44:40;;;;;;;0.10;0.10;;;;;;;;;;5043199;28;20040;-88
2022/05/29 04:47:09;;;;;;;0.10;0.10;;;;;;;;;;5059023;28;20045;-87
2022/05/29 04:49:37;;;;;;;0.10;0.10;;;;;;;;;;5043114;28;20036;-88
2022/05/29 04:52:03;;;;;;;0.20;0.20;;;;;;;;;;5060891;28;20432;-89
2022/05/29 04:54:29;;;;;;;0.20;0.20;;;;;;;;;;5044399;28;20044;-89
2022/05/29 04:56:56;;;;;;;0.30;0.30;;;;;;;;;;5043400;28;20040;-88
2022/05/29 04:59:22;;;;;;;0.10;0.10;;;;;;;;;;5043782;28;20076;-88
2022/05/29 05:01:49;;;;;;;0.20;0.20;;;;;;;;;;5044567;28;20036;-89
2022/05/29 05:04:15;;;;;;;0.15;0.15;;;;;;;;;;5041483;28;20052;-89
2022/05/29 05:06:41;;;;;;;0.15;0.15;;;;;;;;;;5042995;28;20460;-88
2022/05/29 05:09:07;;;;;;;0.10;0.10;;;;;;;;;;5042515;28;20036;-89
2022/05/29 05:11:33;;;;;;;0.20;0.20;;;;;;;;;;5042276;28;20036;-88
2022/05/29 05:13:59;;;;;;;0.20;0.20;;;;;;;;;;5041879;28;20401;-88
2022/05/29 05:16:25;;;;;;;0.10;0.10;;;;;;;;;;5021369;28;20049;-90
2022/05/29 05:18:51;;;;;;;0.20;0.20;;;;;;;;;;5024555;28;20619;-88
2022/05/29 05:21:17;;;;;;;0.10;0.10;;;;;;;;;;5058972;28;20078;-87
2022/05/29 05:23:44;;;;;;;0.20;0.20;;;;;;;;;;5041785;28;20034;-88
2022/05/29 05:26:15;;;;;;;0.10;0.10;;;;;;;;;;5048619;28;20131;-92
2022/05/29 05:28:42;;;;;;;0.10;0.10;;;;;;;;;;5044592;28;20133;-88
2022/05/29 05:31:08;;;;;;;0.20;0.20;;;;;;;;;;5040199;28;20047;-89
2022/05/29 05:33:34;;;;;;;0.13;0.13;;;;;;;;;;5057327;28;20048;-89
2022/05/29 05:36:00;;;;;;;0.10;0.10;;;;;;;;;;5041369;28;20102;-88
2022/05/29 05:38:26;;;;;;;0.10;0.10;;;;;;;;;;5041733;28;20043;-88
2022/05/29 05:40:52;;;;;;;0.30;0.30;;;;;;;;;;5041753;28;20123;-88
2022/05/29 05:43:19;;;;;;;0.10;0.10;;;;;;;;;;5039957;28;20093;-90
2022/05/29 05:45:45;;;;;;;0.10;0.10;;;;;;;;;;5040485;28;20156;-88
2022/05/29 05:48:11;;;;;;;0.20;0.20;;;;;;;;;;5041961;28;20176;-89
2022/05/29 05:50:38;;;;;;;0.15;0.15;;;;;;;;;;5042083;28;20045;-89
2022/05/29 05:53:09;;;;;;;0.20;0.20;;;;;;;;;;5023794;28;20050;-91
2022/05/29 05:55:36;;;;;;;0.10;0.10;;;;;;;;;;5040953;28;20486;-88
2022/05/29 05:58:03;;;;;;;0.10;0.10;;;;;;;;;;5040918;28;20123;-87
2022/05/29 06:00:30;;;;;;;0.20;0.20;;;;;;;;;;5040267;28;20040;-90
2022/05/29 06:02:56;;;;;;;0.10;0.10;;;;;;;;;;5056173;28;20119;-90
2022/05/29 06:05:28;;;;;;;0.10;0.10;;;;;;;;;;5035342;28;20071;-91
2022/05/29 06:07:54;;;;;;;0.15;0.15;;;;;;;;;;5021050;28;20044;-91
2022/05/29 06:10:20;;;;;;;0.10;0.10;;;;;;;;;;5039605;28;20550;-89
2022/05/29 06:12:46;;;;;;;0.20;0.20;;;;;;;;;;5037064;28;20043;-92
2022/05/29 06:15:12;;;;;;;0.20;0.20;;;;;;;;;;5038632;28;20040;-89
2022/05/29 06:17:39;;;;;;;0.13;0.13;;;;;;;;;;5055470;28;20039;-91
2022/05/29 06:20:07;;;;;;;0.10;0.10;;;;;;;;;;5022692;28;20122;-94
2022/05/29 06:22:35;;;;;;;0.20;0.20;;;;;;;;;;5038488;28;20447;-91
2022/05/29 06:25:01;;;;;;;0.05;0.05;;;;;;;;;;5038897;28;20123;-88
2022/05/29 06:27:28;;;;;;;0.10;0.10;;;;;;;;;;5040481;28;20090;-88
2022/05/29 06:29:54;;;;;;;0.05;0.05;;;;;;;;;;5041211;28;20390;-88
2022/05/29 06:32:20;;;;;;;0.10;0.10;;;;;;;;;;5057181;28;20049;-88
2022/05/29 06:34:46;;;;;;;0.10;0.10;;;;;;;;;;5042296;28;20040;-89
2022/05/29 06:37:12;;;;;;;0.15;0.15;;;;;;;;;;5026441;28;20041;-89
2022/05/29 06:39:38;;;;;;;0.20;0.20;;;;;;;;;;5039187;28;20037;-88
2022/05/29 06:42:05;;;;;;;0.20;0.20;;;;;;;;;;5039691;28;20124;-88
2022/05/29 06:44:31;;;;;;;0.10;0.10;;;;;;;;;;5037566;28;20524;-88
2022/05/29 06:46:57;;;;;;;0.17;0.17;;;;;;;;;;5034819;28;20040;-89
2022/05/29 06:49:23;;;;;;;0.03;0.03;;;;;;;;;;5034234;28;20103;-89
2022/05/29 06:51:49;;;;;;;0.10;0.10;;;;;;;;;;5042130;28;20036;-89
2022/05/29 06:54:15;;;;;;;0.10;0.10;;;;;;;;;;5042165;28;20129;-90
2022/05/29 06:56:42;;;;;;;0.13;0.13;;;;;;;;;;5041248;28;20036;-90
2022/05/29 06:59:08;;;;;;;0.10;0.10;;;;;;;;;;5038761;28;20067;-87
2022/05/29 07:07:07;;;;;;;0.20;0.20;;;;;;;;;;5056586;28;20489;-88
2022/05/29 07:09:35;;;;;;;0.10;0.10;;;;;;;;;;5039926;28;20515;-88
2022/05/29 07:12:18;;;;;;;0.15;0.15;;;;;;;;;;5039939;28;20043;-88
2022/05/29 07:14:47;;;;;;;0.10;0.10;;;;;;;;;;5039556;28;20061;-87
2022/05/29 07:17:13;;;;;;;0.10;0.10;;;;;;;;;;5037169;28;20516;-87
2022/05/29 07:19:41;;;;;;;0.20;0.20;;;;;;;;;;5035376;28;20371;-88
2022/05/29 07:22:07;;;;;;;0.10;0.10;;;;;;;;;;5031671;28;20083;-87
2022/05/29 07:24:35;;;;;;;0.00;0.00;;;;;;;;;;5039997;28;20036;-86
2022/05/29 07:27:01;;;;;;;0.10;0.10;;;;;;;;;;5039083;28;20040;-87
2022/05/29 07:29:27;;;;;;;0.10;0.10;;;;;;;;;;5041639;28;20063;-87
2022/05/29 07:31:53;;;;;;;0.10;0.10;;;;;;;;;;5041437;28;20481;-88
2022/05/29 07:34:20;;;;;;;0.05;0.05;;;;;;;;;;5039103;28;20079;-88
2022/05/29 07:36:46;;;;;;;0.10;0.10;;;;;;;;;;5041570;28;20040;-87
2022/05/29 07:39:13;;;;;;;0.10;0.10;;;;;;;;;;5042124;28;20085;-87
2022/05/29 07:44:24;;;;;;;0.10;0.10;;;;;;;;;;5059822;28;20403;-87
2022/05/29 07:46:50;;;;;;;0.10;0.10;;;;;;;;;;5044355;28;20298;-89
2022/05/29 07:49:16;;;;;;;0.10;0.10;;;;;;;;;;5042915;28;20040;-88
2022/05/29 07:51:42;;;;;;;0.03;0.03;;;;;;;;;;5051926;28;20052;-89
2022/05/29 07:54:08;;;;;;;0.10;0.10;;;;;;;;;;5060128;28;20059;-88
2022/05/29 07:56:34;;;;;;;0.10;0.10;;;;;;;;;;5039641;28;20056;-88
2022/05/29 07:59:00;;;;;;;0.10;0.10;;;;;;;;;;5052922;28;20068;-89
2022/05/29 08:01:26;;;;;;;0.10;0.10;;;;;;;;;;5040122;28;20098;-89
2022/05/29 08:03:52;;;;;;;0.10;0.10;;;;;;;;;;5051875;28;20033;-88
2022/05/29 08:06:21;;;;;;;0.10;0.10;;;;;;;;;;5047303;28;20064;-88
2022/05/29 08:08:47;;;;;;;0.10;0.10;;;;;;;;;;5029791;28;20112;-89
2022/05/29 08:11:15;;;;;;;0.10;0.10;;;;;;;;;;5040292;28;20040;-89
2022/05/29 08:13:43;;;;;;;0.20;0.20;;;;;;;;;;5036341;28;20193;-88
2022/05/29 08:16:09;;;;;;;0.15;0.15;;;;;;;;;;5049042;28;20053;-89
2022/05/29 08:18:35;;;;;;;0.15;0.15;;;;;;;;;;5048122;28;20043;-88
2022/05/29 08:21:01;;;;;;;0.10;0.10;;;;;;;;;;5034241;28;20086;-88
2022/05/29 08:23:27;;;;;;;0.10;0.10;;;;;;;;;;5054039;28;20033;-89
2022/05/29 08:31:24;;;;;;;0.13;0.13;;;;;;;;;;5053762;28;20041;-88
2022/05/29 08:33:50;;;;;;;0.10;0.10;;;;;;;;;;5036554;28;20068;-89
2022/05/29 08:36:20;;;;;;;0.10;0.10;;;;;;;;;;5033292;28;20069;-90
2022/05/29 08:38:48;;;;;;;0.10;0.10;;;;;;;;;;5026740;28;20047;-89
2022/05/29 08:41:19;;;;;;;0.15;0.15;;;;;;;;;;5040471;28;20036;-89
2022/05/29 08:44:04;;;;;;;0.10;0.10;;;;;;;;;;5039140;28;20043;-89
2022/05/29 08:46:52;;;;;;;0.10;0.10;;;;;;;;;;5049987;28;20093;-89
2022/05/29 08:49:22;;;;;;;0.10;0.10;;;;;;;;;;5036477;28;20051;-89
2022/05/29 08:51:48;;;;;;;0.10;0.10;;;;;;;;;;5049158;28;20048;-89
2022/05/29 08:54:17;;;;;;;0.10;0.10;;;;;;;;;;5039617;28;20107;-89
2022/05/29 08:56:52;;;;;;;0.10;0.10;;;;;;;;;;5036590;28;20048;-89
2022/05/29 08:59:21;;;;;;;0.20;0.20;;;;;;;;;;5039953;28;20068;-89
2022/05/29 09:02:03;;;;;;;0.10;0.10;;;;;;;;;;5060064;28;20517;-89
2022/05/29 09:04:32;;;;;;;0.13;0.13;;;;;;;;;;5042590;28;20052;-89
2022/05/29 09:06:59;;;;;;;0.20;0.20;;;;;;;;;;5042808;28;20055;-88
2022/05/29 09:09:29;;;;;;;0.10;0.10;;;;;;;;;;5042774;28;20040;-90
2022/05/29 09:12:00;;;;;;;0.10;0.10;;;;;;;;;;5044021;28;20036;-88
2022/05/29 09:14:32;;;;;;;0.20;0.20;;;;;;;;;;5060117;28;20043;-89
2022/05/29 09:17:01;;;;;;;0.10;0.10;;;;;;;;;;5041515;28;20037;-89
2022/05/29 09:19:31;;;;;;;0.10;0.10;;;;;;;;;;5041427;28;20032;-87
2022/05/29 09:22:00;;;;;;;0.10;0.10;;;;;;;;;;5042942;28;20043;-88
2022/05/29 09:24:39;;;;;;;0.10;0.10;;;;;;;;;;5043204;28;20494;-89
2022/05/29 09:27:05;;;;;;;0.20;0.20;;;;;;;;;;5041968;28;20032;-89
2022/05/29 09:29:31;;;;;;;0.10;0.10;;;;;;;;;;5043005;28;20036;-88
2022/05/29 09:31:57;;;;;;;0.10;0.10;;;;;;;;;;5042430;28;20108;-88
2022/05/29 09:34:23;;;;;;;0.10;0.10;;;;;;;;;;5052294;28;20036;-89
2022/05/29 09:37:00;;;;;;;0.10;0.10;;;;;;;;;;5038717;28;20127;-95
2022/05/29 09:39:34;;;;;;;0.20;0.20;;;;;;;;;;5021912;28;20072;-88
2022/05/29 09:42:05;;;;;;;0.10;0.10;;;;;;;;;;5030632;28;20043;-88
2022/05/29 09:44:31;;;;;;;0.10;0.10;;;;;;;;;;5040755;28;20036;-88
2022/05/29 09:49:40;;;;;;;0.20;0.20;;;;;;;;;;5032636;28;20044;-88
2022/05/29 09:49:49;;;;;;;0.10;0.10;;;;;;;;;;5048699;28;20055;-88
2022/05/29 09:52:19;;;;;;;0.10;0.10;;;;;;;;;;5041948;28;20052;-88
2022/05/29 09:54:53;;;;;;;0.10;0.10;;;;;;;;;;5055990;28;20036;-88
2022/05/29 09:57:25;;;;;;;0.20;0.20;;;;;;;;;;5041073;28;20052;-87
2022/05/29 09:59:52;;;;;;;0.10;0.10;;;;;;;;;;5040112;28;20668;-88
2022/05/29 10:02:24;;;;;;;0.10;0.10;;;;;;;;;;5034550;28;20037;-90
2022/05/29 10:04:52;;;;;;;0.10;0.10;;;;;;;;;;5038290;28;20033;-89
2022/05/29 10:07:21;;;;;;;0.10;0.10;;;;;;;;;;5023095;28;20039;-88
2022/05/29 10:09:58;;;;;;;0.10;0.10;;;;;;;;;;5039144;28;20101;-88
2022/05/29 10:12:57;;;;;;;0.10;0.10;;;;;;;;;;5038566;28;20033;-88
2022/05/29 10:15:26;;;;;;;0.10;0.10;;;;;;;;;;5017324;28;20346;-87
2022/05/29 10:18:05;;;;;;;0.10;0.10;;;;;;;;;;5036603;28;20041;-90
2022/05/29 10:20:31;;;;;;;0.10;0.10;;;;;;;;;;5039394;28;20041;-87
2022/05/29 10:22:57;;;;;;;0.00;0.00;;;;;;;;;;5041080;28;20029;-87
2022/05/29 10:25:28;;;;;;;0.10;0.10;;;;;;;;;;5037588;28;20043;-88
2022/05/29 10:27:57;;;;;;;0.13;0.13;;;;;;;;;;5053407;28;20058;-87
2022/05/29 10:30:28;;;;;;;0.10;0.10;;;;;;;;;;5037842;28;20029;-89
2022/05/29 10:33:10;;;;;;;0.20;0.20;;;;;;;;;;5040777;28;20071;-88
2022/05/29 10:35:55;;;;;;;0.10;0.10;;;;;;;;;;5038704;28;20101;-88
2022/05/29 10:38:34;;;;;;;0.10;0.10;;;;;;;;;;5032183;28;20449;-85
2022/05/29 10:41:01;;;;;;;0.10;0.10;;;;;;;;;;5036947;28;20037;-90
2022/05/29 10:43:43;;;;;;;0.10;0.10;;;;;;;;;;5034511;28;20040;-87
2022/05/29 10:46:15;;;;;;;0.10;0.10;;;;;;;;;;5033420;28;20037;-92
2022/05/29 10:48:54;;;;;;;0.10;0.10;;;;;;;;;;5034675;28;20104;-92
2022/05/29 10:51:41;;;;;;;0.20;0.20;;;;;;;;;;5044484;28;20105;-93
2022/05/29 10:54:28;;;;;;;0.20;0.20;;;;;;;;;;5042119;28;20575;-90
2022/05/29 10:57:11;;;;;;;0.20;0.20;;;;;;;;;;5043341;28;20479;-93
2022/05/29 10:59:38;;;;;;;0.10;0.10;;;;;;;;;;5044597;28;20059;-93
2022/05/29 11:05:18;;;;;;;0.10;0.10;;;;;;;;;;5062660;28;20502;-93
2022/05/29 11:07:46;;;;;;;0.10;0.10;;;;;;;;;;5052423;28;20063;-93
2022/05/29 11:10:24;;;;;;;0.10;0.10;;;;;;;;;;5049236;28;20040;-95
2022/05/29 11:13:09;;;;;;;0.10;0.10;;;;;;;;;;5048108;28;20047;-95
2022/05/29 11:15:35;;;;;;;0.10;0.10;;;;;;;;;;5046921;28;20048;-92
2022/05/29 11:18:17;;;;;;;0.10;0.10;;;;;;;;;;5046123;28;20284;-89
2022/05/29 11:20:47;;;;;;;0.10;0.10;;;;;;;;;;5047788;28;20052;-91
2022/05/29 11:23:31;;;;;;;0.10;0.10;;;;;;;;;;5061736;28;20036;-93
2022/05/29 11:26:04;;;;;;;0.10;0.10;;;;;;;;;;5044506;28;20052;-92
2022/05/29 11:28:49;;;;;;;0.10;0.10;;;;;;;;;;5048682;28;20036;-93
2022/05/29 11:31:37;;;;;;;0.13;0.13;;;;;;;;;;5045126;28;20043;-92
2022/05/29 11:34:15;;;;;;;0.00;0.00;;;;;;;;;;5052998;28;20116;-92
2022/05/29 11:36:41;;;;;;;0.20;0.20;;;;;;;;;;5047618;28;20057;-94
2022/05/29 11:39:20;;;;;;;0.20;0.20;;;;;;;;;;5050154;28;20044;-91
2022/05/29 11:41:55;;;;;;;0.25;0.25;;;;;;;;;;5052876;28;20516;-91
2022/05/29 11:44:25;;;;;;;0.10;0.10;;;;;;;;;;5043760;28;20040;-92
2022/05/29 11:53:14;;;;;;;0.20;0.20;;;;;;;;;;5060577;28;20041;-93
2022/05/29 11:55:42;;;;;;;0.10;0.10;;;;;;;;;;5039134;28;20083;-93
2022/05/29 11:58:14;;;;;;;0.08;0.08;;;;;;;;;;5043796;28;20037;-92
2022/05/29 12:00:40;;;;;;;0.10;0.10;;;;;;;;;;5046566;28;20036;-93
2022/05/29 12:03:19;;;;;;;0.10;0.10;;;;;;;;;;5041143;28;20033;-94
2022/05/29 12:05:52;;;;;;;0.10;0.10;;;;;;;;;;5041774;28;20531;-93
2022/05/29 12:08:22;;;;;;;0.10;0.10;;;;;;;;;;5057089;28;20052;-93
2022/05/29 12:11:03;;;;;;;0.10;0.10;;;;;;;;;;5047062;28;20052;-95
2022/05/29 12:13:43;;;;;;;0.10;0.10;;;;;;;;;;5040066;28;20055;-91
2022/05/29 12:16:11;;;;;;;0.10;0.10;;;;;;;;;;5032463;28;20049;-93
2022/05/29 12:18:53;;;;;;;0.00;0.00;;;;;;;;;;5054319;28;20376;-93
2022/05/29 12:21:42;;;;;;;0.10;0.10;;;;;;;;;;5037246;28;20127;-91
2022/05/29 12:24:10;;;;;;;0.10;0.10;;;;;;;;;;5047546;28;20067;-94
2022/05/29 12:26:39;;;;;;;0.10;0.10;;;;;;;;;;5043347;28;20040;-94
2022/05/29 12:29:11;;;;;;;0.15;0.15;;;;;;;;;;5035948;28;20040;-94
2022/05/29 12:31:42;;;;;;;0.10;0.10;;;;;;;;;;5041563;28;20048;-92
2022/05/29 12:34:15;;;;;;;0.13;0.13;;;;;;;;;;5041048;28;20044;-93
2022/05/29 12:37:05;;;;;;;0.10;0.10;;;;;;;;;;5026307;28;20047;-92
2022/05/29 12:39:40;;;;;;;0.10;0.10;;;;;;;;;;5034725;28;20033;-88
2022/05/29 12:42:12;;;;;;;;;;;;;;;;;;5042144;28;20392;-89
2022/05/29 12:44:57;;;;;;;0.00;0.00;;;;;;;;;;5043717;28;19955;-89
2022/05/29 12:47:29;;;;;;;0.10;0.10;;;;;;;;;;5041618;28;20041;-89
2022/05/29 12:50:14;;;;;;;0.10;0.10;;;;;;;;;;5039991;28;20090;-88
2022/05/29 12:52:43;;;;;;;0.05;0.05;;;;;;;;;;5037406;28;20412;-89
2022/05/29 12:55:13;;;;;;;0.10;0.10;;;;;;;;;;5031115;28;20509;-89
2022/05/29 12:57:51;;;;;;;0.00;0.00;;;;;;;;;;5038190;28;20062;-89
2022/05/29 13:00:32;;;;;;;0.00;0.00;;;;;;;;;;5034597;28;20473;-88
2022/05/29 13:03:27;;;;;;;0.00;0.00;;;;;;;;;;5039663;28;20481;-89
2022/05/29 13:06:04;;;;;;;0.00;0.00;;;;;;;;;;5037163;28;20040;-87
2022/05/29 13:08:57;;;;;;;0.10;0.10;;;;;;;;;;5041364;28;20222;-88
2022/05/29 13:11:26;;;;;;;0.10;0.10;;;;;;;;;;5037059;28;20439;-88
2022/05/29 13:13:58;;;;;;;0.10;0.10;;;;;;;;;;5039021;28;20080;-88
2022/05/29 13:16:26;;;;;;;0.10;0.10;;;;;;;;;;5037257;28;20560;-88
2022/05/29 13:21:51;;;;;;;0.10;0.10;;;;;;;;;;5048397;28;20040;-88
2022/05/29 13:24:18;;;;;;;0.00;0.00;;;;;;;;;;5031674;28;20040;-87
2022/05/29 13:27:05;;;;;;;0.00;0.00;;;;;;;;;;5035026;28;20051;-88
2022/05/29 13:29:38;;;;;;;0.20;0.20;;;;;;;;;;5027952;28;20043;-88
2022/05/29 13:32:13;;;;;;;0.15;0.15;;;;;;;;;;5029613;28;20076;-88
2022/05/29 13:34:39;;;;;;;;;;;;;;;;;;5035259;28;20040;-88
2022/05/29 13:37:07;;;;;;;0.10;0.10;;;;;;;;;;5053094;28;19928;-88
2022/05/29 13:39:52;;;;;;;0.10;0.10;;;;;;;;;;5038239;28;20098;-88
2022/05/29 13:42:27;;;;;;;0.10;0.10;;;;;;;;;;5036016;28;20493;-88
2022/05/29 13:44:54;;;;;;;0.10;0.10;;;;;;;;;;5031500;28;20043;-88
2022/05/29 13:47:26;;;;;;;0.20;0.20;;;;;;;;;;5036818;28;20094;-88
2022/05/29 13:50:01;;;;;;;0.10;0.10;;;;;;;;;;5036581;28;20048;-88
2022/05/29 13:52:42;;;;;;;0.10;0.10;;;;;;;;;;5047681;28;20395;-88
2022/05/29 13:55:34;;;;;;;0.10;0.10;;;;;;;;;;5035418;28;20094;-88
2022/05/29 14:04:00;;;;;;;0.15;0.15;;;;;;;;;;5051581;28;20146;-88
2022/05/29 14:06:27;;;;;;;0.13;0.13;;;;;;;;;;5034327;28;20635;-89
2022/05/29 14:08:58;;;;;;;0.10;0.10;;;;;;;;;;5034351;28;20119;-88
2022/05/29 14:11:43;;;;;;;0.15;0.15;;;;;;;;;;5034312;28;20443;-88
2022/05/29 14:14:28;;;;;;;0.10;0.10;;;;;;;;;;5031405;28;20036;-87
2022/05/29 14:17:17;;;;;;;0.03;0.03;;;;;;;;;;5024384;28;20037;-88
2022/05/29 14:19:54;;;;;;;0.00;0.00;;;;;;;;;;5022412;28;20550;-88
2022/05/29 14:22:51;;;;;;;0.08;0.08;;;;;;;;;;5051960;28;20059;-88
2022/05/29 14:25:27;;;;;;;0.10;0.10;;;;;;;;;;4968418;28;20410;-89
2022/05/29 14:28:11;;;;;;;0.00;0.00;;;;;;;;;;5036320;28;20044;-89
2022/05/29 14:30:56;;;;;;;0.10;0.10;;;;;;;;;;5038335;28;20123;-89
2022/05/29 14:33:31;;;;;;;0.00;0.00;;;;;;;;;;5030087;28;20033;-89
2022/05/29 14:36:05;;;;;;;0.10;0.10;;;;;;;;;;5033799;28;20510;-88
2022/05/29 14:38:31;;;;;;;0.00;0.00;;;;;;;;;;5039802;28;20040;-91
2022/05/29 14:40:59;;;;;;;0.10;0.10;;;;;;;;;;5041545;28;20124;-90
2022/05/29 14:43:27;;;;;;;0.10;0.10;;;;;;;;;;5041104;28;20428;-89
2022/05/29 14:46:16;;;;;;;0.00;0.00;;;;;;;;;;5039137;28;20040;-89
2022/05/29 14:48:55;;;;;;;0.10;0.10;;;;;;;;;;5025708;28;20036;-88
2022/05/29 14:51:36;;;;;;;0.00;0.00;;;;;;;;;;5023192;28;20043;-89
2022/05/29 14:54:21;;;;;;;0.10;0.10;;;;;;;;;;5036525;28;20076;-88
2022/05/29 14:56:50;;;;;;;;;;;;;;;;;;5037382;28;20461;-89
2022/05/29 14:59:19;;;;;;;0.30;0.30;;;;;;;;;;5029416;28;19924;-88
2022/05/29 15:01:51;;;;;;;0.10;0.10;;;;;;;;;;5039011;28;20044;-88
2022/05/29 15:04:20;;;;;;;0.20;0.20;;;;;;;;;;5033576;28;20039;-88
2022/05/29 15:12:31;;;;;;;0.10;0.10;;;;;;;;;;5052082;28;20159;-88
2022/05/29 15:15:15;;;;;;;0.20;0.20;;;;;;;;;;5037272;28;20040;-89
2022/05/29 15:17:42;;;;;;;0.10;0.10;;;;;;;;;;5034551;28;20117;-88
2022/05/29 15:24:08;;;;;;;0.10;0.10;;;;;;;;;;5036192;28;20045;-88
2022/05/29 15:25:39;;;;;;;0.15;0.15;;;;;;;;;;5043696;28;20092;-89
2022/05/29 15:28:10;;;;;;;0.15;0.15;;;;;;;;;;5034108;28;20116;-89
2022/05/29 15:30:42;;;;;;;0.00;0.00;;;;;;;;;;5052928;28;20040;-88
2022/05/29 15:33:10;;;;;;;0.00;0.00;;;;;;;;;;5033760;28;20037;-88
2022/05/29 15:36:00;;;;;;;0.10;0.10;;;;;;;;;;5033307;28;20512;-88
2022/05/29 15:38:44;;;;;;;0.20;0.20;;;;;;;;;;5029614;28;20379;-89
2022/05/29 15:41:18;;;;;;;0.10;0.10;;;;;;;;;;5040154;28;20486;-89
2022/05/29 15:43:55;;;;;;;0.20;0.20;;;;;;;;;;5022436;28;20044;-89
2022/05/29 15:46:24;;;;;;;0.10;0.10;;;;;;;;;;5037080;28;20052;-89
2022/05/29 15:49:08;;;;;;;0.20;0.20;;;;;;;;;;5038913;28;20041;-89
2022/05/29 15:51:41;;;;;;;0.10;0.10;;;;;;;;;;5038968;28;20036;-88
2022/05/29 15:54:13;;;;;;;0.10;0.10;;;;;;;;;;5041661;28;20052;-89
2022/05/29 15:56:44;;;;;;;0.10;0.10;;;;;;;;;;5038398;28;20037;-89